Time;durP1;ratioP1;P1;durP2;ratioP2;P2;SDS_P1;SDS_P2;PMS_P1;PMS_P2;Temp;Humidity;BMP_temperature;BMP_pressure;BME280_temperature;BME280_humidity;BME280_pressure;Samples;Min_cycle;Max_cycle;Signal;HPM_P1;HPM_P2
2022/10/06 00:02:21;;;;;;;7.32;1.92;;;13.50;99.90;;;;;;6066881;23;20474;-85
2022/10/06 00:04:47;;;;;;;8.68;2.28;;;13.50;99.90;;;;;;6067289;23;20046;-85
2022/10/06 00:07:14;;;;;;;9.20;1.88;;;13.50;99.90;;;;;;6019820;23;20010;-86
2022/10/06 00:09:40;;;;;;;8.27;2.20;;;13.50;99.90;;;;;;6042872;23;20022;-87
2022/10/06 00:12:06;;;;;;;9.13;1.90;;;13.50;99.90;;;;;;6067643;23;20055;-87
2022/10/06 00:14:32;;;;;;;17.92;2.40;;;13.40;99.90;;;;;;6067473;23;20018;-86
2022/10/06 00:16:57;;;;;;;10.10;2.13;;;13.40;99.90;;;;;;6019709;23;20014;-87
2022/10/06 00:19:23;;;;;;;9.95;2.20;;;13.40;99.90;;;;;;6019519;23;20015;-87
2022/10/06 00:21:49;;;;;;;8.27;1.88;;;13.40;99.90;;;;;;6067061;23;20355;-87
2022/10/06 00:24:14;;;;;;;9.65;2.03;;;13.50;99.90;;;;;;6020255;23;20047;-85
2022/10/06 00:26:40;;;;;;;13.48;2.22;;;13.40;99.90;;;;;;6047630;23;20021;-87
2022/10/06 00:29:06;;;;;;;11.40;2.25;;;13.40;99.90;;;;;;6074698;23;20047;-87
2022/10/06 00:31:33;;;;;;;12.57;2.58;;;13.40;99.90;;;;;;6040448;23;20014;-84
2022/10/06 00:33:59;;;;;;;14.05;2.35;;;13.40;99.90;;;;;;6051349;23;20019;-87
2022/10/06 00:36:25;;;;;;;13.38;2.38;;;13.40;99.90;;;;;;6051185;23;20026;-86
2022/10/06 00:38:50;;;;;;;11.88;2.17;;;13.40;99.90;;;;;;6019773;23;20448;-85
2022/10/06 00:41:17;;;;;;;10.05;2.13;;;13.40;99.90;;;;;;6019460;23;20019;-85
2022/10/06 00:43:46;;;;;;;10.50;2.05;;;13.40;99.90;;;;;;6066516;23;20014;-86
2022/10/06 00:46:27;;;;;;;9.85;2.38;;;13.40;99.90;;;;;;6042333;23;20011;-87
2022/10/06 00:49:02;;;;;;;12.32;2.25;;;13.40;99.90;;;;;;6043349;23;20014;-87
2022/10/06 00:51:30;;;;;;;12.65;2.40;;;13.40;99.90;;;;;;6066948;23;20011;-87
2022/10/06 00:53:56;;;;;;;12.93;2.70;;;13.30;99.90;;;;;;6043170;23;20010;-86
2022/10/06 00:56:23;;;;;;;11.50;2.33;;;13.30;99.90;;;;;;6043087;23;20545;-86
2022/10/06 00:58:49;;;;;;;9.68;1.80;;;13.30;99.90;;;;;;6019498;23;20476;-85
2022/10/06 01:01:15;;;;;;;13.52;2.45;;;13.30;99.90;;;;;;6041773;23;20015;-85
2022/10/06 01:03:47;;;;;;;11.02;2.10;;;13.20;99.90;;;;;;6042551;23;20023;-84
2022/10/06 01:06:13;;;;;;;11.95;2.15;;;13.20;99.90;;;;;;6043029;23;20072;-85
2022/10/06 01:08:39;;;;;;;14.25;2.15;;;13.20;99.90;;;;;;6019717;23;20040;-85
2022/10/06 01:11:11;;;;;;;12.07;2.53;;;13.20;99.90;;;;;;6042847;23;20018;-86
2022/10/06 01:13:37;;;;;;;11.18;2.40;;;13.10;99.90;;;;;;6042923;23;20025;-85
2022/10/06 01:16:23;;;;;;;9.15;2.22;;;13.10;99.90;;;;;;6042890;23;20014;-85
2022/10/06 01:18:53;;;;;;;12.27;2.20;;;13.10;99.90;;;;;;6066681;23;20077;-84
2022/10/06 01:21:24;;;;;;;10.27;2.10;;;13.10;99.90;;;;;;6042763;23;20029;-85
2022/10/06 01:23:50;;;;;;;11.10;2.10;;;13.10;99.90;;;;;;6042272;23;20620;-84
2022/10/06 01:26:18;;;;;;;11.07;2.20;;;13.10;99.90;;;;;;6066380;23;20378;-85
2022/10/06 01:28:45;;;;;;;10.52;2.10;;;13.10;99.90;;;;;;6041928;23;20368;-84
2022/10/06 01:31:11;;;;;;;10.65;2.10;;;13.10;99.90;;;;;;6019303;23;20022;-85
2022/10/06 01:33:36;;;;;;;17.20;2.40;;;13.10;99.90;;;;;;6041908;23;20082;-86
2022/10/06 01:36:03;;;;;;;11.90;2.20;;;13.00;99.90;;;;;;6018308;23;20018;-86
2022/10/06 01:38:29;;;;;;;12.27;2.28;;;13.10;99.90;;;;;;6042884;23;20022;-85
2022/10/06 01:40:54;;;;;;;12.63;2.70;;;13.10;99.90;;;;;;6042810;23;20021;-86
2022/10/06 01:43:20;;;;;;;11.15;2.35;;;13.00;99.90;;;;;;6045046;23;20015;-86
2022/10/06 01:45:55;;;;;;;10.70;1.98;;;13.00;99.90;;;;;;6044481;23;20545;-85
2022/10/06 01:48:21;;;;;;;10.23;2.05;;;13.00;99.90;;;;;;6044627;23;20022;-86
2022/10/06 01:50:47;;;;;;;12.75;2.42;;;13.00;99.90;;;;;;6068391;23;20025;-85
2022/10/06 01:53:13;;;;;;;10.27;2.10;;;13.00;99.90;;;;;;6068237;23;20018;-85
2022/10/06 01:55:39;;;;;;;12.02;2.63;;;13.00;99.90;;;;;;6068452;23;20022;-86
2022/10/06 01:58:05;;;;;;;13.75;2.42;;;12.90;99.90;;;;;;6044407;23;20014;-85
2022/10/06 02:00:31;;;;;;;9.57;2.08;;;12.90;99.90;;;;;;6020217;23;20419;-87
2022/10/06 02:02:56;;;;;;;13.30;2.10;;;12.90;99.90;;;;;;6044609;23;20050;-85
2022/10/06 02:05:22;;;;;;;15.63;2.65;;;12.90;99.90;;;;;;6020602;23;20443;-86
2022/10/06 02:07:48;;;;;;;12.65;2.63;;;12.80;99.90;;;;;;6068869;23;20011;-85
2022/10/06 02:10:14;;;;;;;11.18;2.42;;;12.80;99.90;;;;;;6020595;23;20050;-86
2022/10/06 02:12:39;;;;;;;13.02;2.78;;;12.80;99.90;;;;;;6068536;23;20025;-88
2022/10/06 02:15:06;;;;;;;10.73;2.25;;;12.80;99.90;;;;;;6020770;23;20018;-85
2022/10/06 02:17:31;;;;;;;12.50;2.50;;;12.70;99.90;;;;;;6044456;23;20018;-87
2022/10/06 02:19:57;;;;;;;13.32;2.35;;;12.70;99.90;;;;;;6020929;23;20456;-87
2022/10/06 02:22:23;;;;;;;12.32;2.72;;;12.70;99.90;;;;;;6068190;23;20053;-87
2022/10/06 02:24:48;;;;;;;11.43;2.28;;;12.70;99.90;;;;;;6043892;23;20089;-86
2022/10/06 02:27:14;;;;;;;12.90;2.40;;;12.70;99.90;;;;;;6020320;23;20085;-86
2022/10/06 02:29:40;;;;;;;12.55;1.95;;;12.70;99.90;;;;;;6020436;23;20022;-86
2022/10/06 02:32:05;;;;;;;10.88;2.40;;;12.60;99.90;;;;;;6044123;23;20025;-86
2022/10/06 02:34:31;;;;;;;13.23;2.80;;;12.60;99.90;;;;;;6044150;23;20109;-86
2022/10/06 02:36:57;;;;;;;14.57;2.78;;;12.60;99.90;;;;;;6043395;23;20014;-84
2022/10/06 02:39:23;;;;;;;10.50;2.08;;;12.60;99.90;;;;;;6068209;23;20117;-86
2022/10/06 02:41:48;;;;;;;11.38;2.40;;;12.60;99.90;;;;;;6043929;23;20010;-86
2022/10/06 02:44:14;;;;;;;13.80;2.55;;;12.60;99.90;;;;;;6044107;23;20033;-88
2022/10/06 02:46:40;;;;;;;14.40;2.55;;;12.60;99.90;;;;;;6044273;23;20205;-86
2022/10/06 02:49:06;;;;;;;11.68;2.25;;;12.50;99.90;;;;;;6043645;23;20162;-86
2022/10/06 02:51:32;;;;;;;10.43;2.13;;;12.60;99.90;;;;;;6043897;23;20440;-87
2022/10/06 02:53:58;;;;;;;9.88;2.33;;;12.50;99.90;;;;;;6044211;23;20011;-87
2022/10/06 02:56:25;;;;;;;14.13;3.00;;;12.50;99.90;;;;;;6044300;23;20014;-87
2022/10/06 02:58:52;;;;;;;11.98;2.38;;;12.50;99.90;;;;;;6043700;23;20017;-87
2022/10/06 03:01:23;;;;;;;14.10;2.20;;;12.50;99.90;;;;;;6020223;23;20010;-86
2022/10/06 03:03:49;;;;;;;12.48;2.30;;;12.50;99.90;;;;;;6042801;23;20011;-86
2022/10/06 03:06:27;;;;;;;14.43;3.10;;;12.60;99.90;;;;;;6068202;23;20524;-86
2022/10/06 03:08:57;;;;;;;13.95;2.47;;;12.50;99.90;;;;;;6043959;23;20015;-86
2022/10/06 03:11:25;;;;;;;14.10;2.90;;;12.40;99.90;;;;;;6068063;23;20360;-86
2022/10/06 03:13:52;;;;;;;12.68;2.50;;;12.40;99.90;;;;;;6067240;23;20022;-86
2022/10/06 03:16:24;;;;;;;12.40;2.20;;;12.40;99.90;;;;;;6068262;23;20322;-85
2022/10/06 03:18:51;;;;;;;15.82;2.58;;;12.40;99.90;;;;;;6044247;23;20018;-86
2022/10/06 03:21:19;;;;;;;10.80;2.65;;;12.40;99.90;;;;;;6051392;23;20014;-87
2022/10/06 03:23:50;;;;;;;13.13;2.53;;;12.40;99.90;;;;;;6049029;23;20046;-87
2022/10/06 03:26:18;;;;;;;10.85;2.40;;;12.40;99.90;;;;;;6046176;23;20036;-88
2022/10/06 03:28:44;;;;;;;13.80;2.65;;;12.30;99.90;;;;;;6103325;23;20015;-87
2022/10/06 03:31:10;;;;;;;13.15;2.60;;;12.30;99.90;;;;;;6045858;23;20030;-88
2022/10/06 03:33:36;;;;;;;9.77;2.15;;;12.30;99.90;;;;;;6043077;23;20033;-87
2022/10/06 03:36:08;;;;;;;10.00;2.17;;;12.30;99.90;;;;;;6067312;23;20023;-88
2022/10/06 03:38:35;;;;;;;13.25;2.65;;;12.20;99.90;;;;;;6042352;23;20014;-87
2022/10/06 03:41:12;;;;;;;15.98;3.08;;;12.20;99.90;;;;;;6019595;23;20333;-86
2022/10/06 03:43:39;;;;;;;11.23;2.50;;;12.20;99.90;;;;;;6043566;23;20014;-87
2022/10/06 03:46:06;;;;;;;11.38;2.45;;;12.10;99.90;;;;;;6020048;23;20011;-87
2022/10/06 03:48:34;;;;;;;12.07;2.40;;;12.10;99.90;;;;;;6043405;23;20046;-88
2022/10/06 03:51:02;;;;;;;9.57;2.17;;;12.10;99.90;;;;;;6042272;23;20068;-87
2022/10/06 03:53:29;;;;;;;14.30;2.55;;;12.00;99.90;;;;;;6067479;23;20041;-87
2022/10/06 03:56:11;;;;;;;10.60;2.10;;;12.00;99.90;;;;;;6042639;23;20018;-87
2022/10/06 03:58:40;;;;;;;12.75;2.80;;;12.00;99.90;;;;;;6067356;23;20014;-87
2022/10/06 04:01:08;;;;;;;11.85;2.20;;;12.00;99.90;;;;;;6042410;23;20069;-87
2022/10/06 04:03:35;;;;;;;8.10;1.80;;;12.00;99.90;;;;;;6043362;23;20042;-87
2022/10/06 04:06:03;;;;;;;13.98;2.42;;;12.10;99.90;;;;;;6042911;23;20021;-86
2022/10/06 04:08:30;;;;;;;11.38;2.38;;;12.00;99.90;;;;;;6043394;23;20336;-85
2022/10/06 04:11:04;;;;;;;9.55;2.28;;;12.00;99.90;;;;;;6041959;23;20097;-86
2022/10/06 04:13:30;;;;;;;13.25;2.35;;;12.00;99.90;;;;;;6067553;23;20161;-86
2022/10/06 04:15:56;;;;;;;12.40;2.55;;;12.00;99.90;;;;;;6067110;23;20061;-87
2022/10/06 04:18:22;;;;;;;11.43;2.08;;;12.00;99.90;;;;;;6019920;23;20025;-87
2022/10/06 04:20:48;;;;;;;12.23;2.97;;;12.00;99.90;;;;;;6018639;23;20018;-87
2022/10/06 04:23:15;;;;;;;9.70;2.17;;;12.00;99.90;;;;;;6043171;23;20274;-86
2022/10/06 04:25:41;;;;;;;9.00;2.00;;;12.00;99.90;;;;;;6020148;23;20062;-87
2022/10/06 04:28:07;;;;;;;11.50;2.28;;;11.90;99.90;;;;;;6067079;23;20344;-87
2022/10/06 04:30:32;;;;;;;14.25;2.42;;;11.90;99.90;;;;;;6042999;23;20507;-86
2022/10/06 04:32:58;;;;;;;13.32;2.85;;;11.90;99.90;;;;;;6019128;23;20308;-86
2022/10/06 04:35:26;;;;;;;10.40;2.53;;;11.80;99.90;;;;;;6019236;23;20080;-85
2022/10/06 04:37:53;;;;;;;13.50;2.40;;;11.80;99.90;;;;;;6043654;23;20026;-86
2022/10/06 04:40:19;;;;;;;13.70;2.80;;;11.80;99.90;;;;;;6066612;23;20641;-87
2022/10/06 04:42:45;;;;;;;12.70;2.78;;;11.80;99.90;;;;;;6065478;23;20042;-87
2022/10/06 04:45:11;;;;;;;11.68;2.13;;;11.70;99.90;;;;;;6017775;23;20456;-86
2022/10/06 04:47:36;;;;;;;15.35;2.20;;;11.70;99.90;;;;;;6043121;23;20015;-86
2022/10/06 04:50:03;;;;;;;9.63;2.05;;;11.70;99.90;;;;;;6019148;23;20092;-85
2022/10/06 04:52:28;;;;;;;8.98;2.00;;;11.60;99.90;;;;;;6042112;23;20022;-87
2022/10/06 04:54:54;;;;;;;14.20;2.67;;;11.80;99.90;;;;;;6042937;23;20026;-86
2022/10/06 04:57:20;;;;;;;10.30;2.58;;;11.60;99.90;;;;;;6041874;23;20018;-86
2022/10/06 05:02:29;;;;;;;11.63;2.20;;;11.60;99.90;;;;;;6046567;23;20085;-88
2022/10/06 05:04:56;;;;;;;9.50;2.00;;;11.60;99.90;;;;;;6041285;23;20614;-86
2022/10/06 05:07:22;;;;;;;12.70;2.38;;;11.50;99.90;;;;;;6043136;23;20340;-86
2022/10/06 05:09:48;;;;;;;14.18;2.38;;;11.50;99.90;;;;;;6043432;23;20022;-87
2022/10/06 05:12:13;;;;;;;15.38;2.70;;;11.50;99.90;;;;;;6043408;23;20018;-87
2022/10/06 05:14:39;;;;;;;14.30;2.70;;;11.50;99.90;;;;;;6020018;23;20022;-87
2022/10/06 05:17:05;;;;;;;9.68;2.40;;;11.50;99.90;;;;;;6019905;23;20322;-87
2022/10/06 05:19:30;;;;;;;9.77;2.08;;;11.50;99.90;;;;;;6067379;23;20317;-87
2022/10/06 05:21:56;;;;;;;13.95;2.33;;;11.50;99.90;;;;;;6019579;23;20015;-88
2022/10/06 05:24:21;;;;;;;12.68;2.53;;;11.50;99.90;;;;;;6042231;23;20073;-86
2022/10/06 05:26:48;;;;;;;10.60;2.10;;;11.50;99.90;;;;;;6018249;23;20010;-87
2022/10/06 05:29:13;;;;;;;19.02;3.28;;;11.50;99.90;;;;;;6043358;23;20011;-87
2022/10/06 05:31:41;;;;;;;10.73;2.55;;;11.50;99.90;;;;;;6019383;23;20014;-88
2022/10/06 05:34:08;;;;;;;11.27;2.47;;;11.50;99.90;;;;;;6065574;23;20313;-87
2022/10/06 05:36:34;;;;;;;14.07;2.58;;;11.50;99.90;;;;;;6042266;23;20015;-86
2022/10/06 05:39:00;;;;;;;11.30;2.40;;;11.50;99.90;;;;;;6067472;23;20022;-86
2022/10/06 05:41:28;;;;;;;11.13;2.25;;;11.50;99.90;;;;;;6043789;23;20018;-86
2022/10/06 05:43:55;;;;;;;10.35;2.15;;;11.50;99.90;;;;;;6043495;23;20122;-85
2022/10/06 05:46:29;;;;;;;10.25;1.90;;;11.50;99.90;;;;;;6067287;23;20457;-87
2022/10/06 05:48:57;;;;;;;14.23;2.72;;;11.60;99.90;;;;;;6043652;23;20081;-86
2022/10/06 05:51:25;;;;;;;11.95;2.40;;;11.60;99.90;;;;;;6043684;23;20518;-87
2022/10/06 05:53:51;;;;;;;14.32;3.17;;;11.60;99.90;;;;;;6043508;23;20321;-86
2022/10/06 05:56:24;;;;;;;18.63;3.25;;;11.50;99.90;;;;;;6043294;23;20029;-87
2022/10/06 05:58:53;;;;;;;12.18;2.35;;;11.50;99.90;;;;;;6044532;23;20050;-88
2022/10/06 06:01:18;;;;;;;19.20;3.65;;;11.60;99.90;;;;;;6067598;23;20393;-87
2022/10/06 06:03:50;;;;;;;10.77;2.28;;;11.50;99.90;;;;;;6068145;23;20014;-87
2022/10/06 06:06:18;;;;;;;12.43;2.40;;;11.50;99.90;;;;;;6067013;23;20006;-87
2022/10/06 06:08:45;;;;;;;12.25;2.60;;;11.50;99.90;;;;;;6043892;23;20046;-86
2022/10/06 06:11:11;;;;;;;12.75;2.40;;;11.50;99.90;;;;;;6045696;23;20333;-87
2022/10/06 06:13:36;;;;;;;16.88;3.10;;;11.80;99.90;;;;;;6043846;23;20014;-87
2022/10/06 06:16:04;;;;;;;16.08;2.60;;;11.60;99.90;;;;;;6047596;23;20105;-88
2022/10/06 06:18:31;;;;;;;11.68;2.63;;;11.60;99.90;;;;;;6045729;23;20262;-87
2022/10/06 06:20:59;;;;;;;13.65;2.60;;;11.60;99.90;;;;;;6067573;23;20014;-88
2022/10/06 06:23:31;;;;;;;12.82;2.78;;;11.60;99.90;;;;;;6067214;23;20093;-86
2022/10/06 06:26:01;;;;;;;13.73;3.15;;;11.60;99.90;;;;;;6042899;23;20021;-86
2022/10/06 06:28:28;;;;;;;10.82;2.30;;;11.60;99.90;;;;;;6068205;23;20550;-87
2022/10/06 06:31:01;;;;;;;15.80;2.35;;;11.70;99.90;;;;;;6045526;23;20154;-86
2022/10/06 06:33:28;;;;;;;10.40;2.50;;;11.70;99.90;;;;;;6045248;23;20089;-87
2022/10/06 06:35:53;;;;;;;13.70;2.55;;;11.70;99.90;;;;;;6045285;23;20018;-87
2022/10/06 06:38:19;;;;;;;12.60;3.03;;;11.80;99.90;;;;;;6021167;23;20451;-86
2022/10/06 06:40:45;;;;;;;11.45;2.50;;;11.80;99.90;;;;;;6068863;23;20024;-87
2022/10/06 06:43:11;;;;;;;12.77;2.80;;;11.80;99.90;;;;;;6045800;23;20056;-86
2022/10/06 06:45:37;;;;;;;12.38;2.80;;;12.00;99.90;;;;;;6045001;23;20015;-86
2022/10/06 06:48:04;;;;;;;14.65;2.70;;;11.90;99.90;;;;;;6068679;23;20018;-87
2022/10/06 06:50:31;;;;;;;10.93;2.38;;;12.00;99.90;;;;;;6044848;23;20471;-87
2022/10/06 06:52:57;;;;;;;12.65;2.33;;;12.10;99.90;;;;;;6045630;23;20018;-87
2022/10/06 06:55:23;;;;;;;12.60;2.38;;;12.30;99.90;;;;;;6044766;23;20336;-86
2022/10/06 06:57:49;;;;;;;11.82;2.45;;;12.10;99.90;;;;;;6044603;23;20022;-86
2022/10/06 07:00:16;;;;;;;12.02;2.33;;;12.20;99.90;;;;;;6068775;23;20605;-86
2022/10/06 07:02:42;;;;;;;14.48;2.60;;;12.20;99.90;;;;;;6069452;23;20014;-85
2022/10/06 07:05:08;;;;;;;11.40;2.20;;;12.30;99.90;;;;;;6044955;23;20021;-87
2022/10/06 07:07:34;;;;;;;11.20;2.38;;;12.30;99.90;;;;;;6045076;23;20021;-87
2022/10/06 07:10:00;;;;;;;13.55;2.58;;;12.40;99.90;;;;;;6067098;23;20014;-86
2022/10/06 07:12:26;;;;;;;12.02;2.50;;;12.50;99.90;;;;;;6044675;23;20090;-85
2022/10/06 07:25:51;;;;;;;15.07;2.50;;;12.80;99.90;;;;;;6068283;23;20046;-87
2022/10/06 07:28:17;;;;;;;13.82;2.72;;;12.90;99.90;;;;;;6068411;23;20239;-86
2022/10/06 07:30:43;;;;;;;14.68;3.00;;;12.90;99.90;;;;;;6020971;23;20607;-86
2022/10/06 07:33:09;;;;;;;10.68;2.35;;;13.00;99.90;;;;;;6044425;23;20015;-87
2022/10/06 07:35:37;;;;;;;10.73;1.95;;;13.10;99.90;;;;;;6044836;23;20089;-87
2022/10/06 07:38:06;;;;;;;15.00;2.80;;;13.10;99.90;;;;;;6044664;23;20015;-86
2022/10/06 07:40:33;;;;;;;12.50;2.40;;;13.10;99.90;;;;;;6043305;23;20018;-86
2022/10/06 07:42:59;;;;;;;13.55;2.85;;;13.10;99.90;;;;;;6068686;23;20168;-87
2022/10/06 07:45:43;;;;;;;11.98;2.58;;;13.20;99.90;;;;;;6044465;23;20280;-87
2022/10/06 07:48:17;;;;;;;12.65;2.72;;;13.30;99.90;;;;;;6044965;23;20018;-86
2022/10/06 07:50:50;;;;;;;13.20;2.72;;;13.30;99.90;;;;;;6044210;23;20412;-87
2022/10/06 07:53:17;;;;;;;15.07;3.30;;;13.40;99.90;;;;;;6044322;23;20344;-87
2022/10/06 07:55:45;;;;;;;10.90;2.45;;;13.60;99.90;;;;;;6044056;23;20049;-87
2022/10/06 07:58:15;;;;;;;14.13;2.53;;;13.50;99.90;;;;;;6092283;23;20070;-86
2022/10/06 08:00:42;;;;;;;15.63;2.63;;;13.60;99.90;;;;;;6044305;23;20019;-84
2022/10/06 08:03:09;;;;;;;13.05;2.42;;;13.60;99.90;;;;;;6068348;23;20017;-87
2022/10/06 08:05:35;;;;;;;13.73;2.47;;;13.70;99.90;;;;;;6067455;23;20471;-86
2022/10/06 08:08:01;;;;;;;14.32;2.78;;;13.70;99.90;;;;;;6044669;23;20007;-87
2022/10/06 08:10:27;;;;;;;11.93;2.60;;;13.80;99.90;;;;;;6044047;23;20033;-87
2022/10/06 08:12:52;;;;;;;14.40;2.47;;;13.80;99.90;;;;;;6044844;23;20093;-86
2022/10/06 08:15:18;;;;;;;14.15;2.50;;;13.90;99.90;;;;;;6067905;23;20041;-87
2022/10/06 08:17:44;;;;;;;9.77;2.03;;;13.90;99.90;;;;;;6044508;23;20093;-88
2022/10/06 08:20:11;;;;;;;13.82;2.55;;;14.00;99.90;;;;;;6044043;23;20059;-87
2022/10/06 08:22:38;;;;;;;11.82;2.15;;;14.10;99.90;;;;;;6068393;23;20011;-87
2022/10/06 08:25:08;;;;;;;13.15;2.72;;;14.10;99.90;;;;;;6092026;23;20364;-87
2022/10/06 08:27:35;;;;;;;11.35;2.45;;;14.20;99.90;;;;;;6043992;23;20022;-86
2022/10/06 08:30:06;;;;;;;16.00;2.58;;;14.20;99.90;;;;;;6044253;23;20452;-87
2022/10/06 08:32:32;;;;;;;15.77;2.92;;;14.30;99.90;;;;;;6044405;23;20019;-88
2022/10/06 08:34:58;;;;;;;12.38;2.38;;;14.30;99.90;;;;;;6044102;23;20022;-86
2022/10/06 08:37:26;;;;;;;13.80;2.70;;;14.30;99.90;;;;;;6067932;23;20025;-88
2022/10/06 08:39:55;;;;;;;13.07;2.40;;;14.50;99.90;;;;;;6044179;23;20049;-87
2022/10/06 08:42:35;;;;;;;14.38;3.10;;;14.50;99.90;;;;;;6044603;23;20073;-85
2022/10/06 08:45:03;;;;;;;11.55;2.83;;;14.50;99.90;;;;;;6067835;23;20037;-86
2022/10/06 08:47:33;;;;;;;8.45;2.10;;;14.50;99.90;;;;;;6044212;23;20015;-86
2022/10/06 08:49:59;;;;;;;12.15;3.25;;;14.50;99.90;;;;;;6044116;23;20329;-86
2022/10/06 08:52:48;;;;;;;16.77;2.30;;;14.60;99.90;;;;;;6043468;23;20019;-86
2022/10/06 08:55:25;;;;;;;11.93;2.38;;;14.60;99.90;;;;;;6043814;23;20018;-86
2022/10/06 08:58:17;;;;;;;14.02;2.55;;;14.70;99.90;;;;;;6044071;23;20026;-87
2022/10/06 09:00:43;;;;;;;12.15;2.42;;;14.70;99.90;;;;;;6009320;23;20022;-86
2022/10/06 09:03:22;;;;;;;12.32;2.20;;;14.80;99.90;;;;;;6067603;23;20018;-86
2022/10/06 09:05:51;;;;;;;11.40;2.20;;;14.80;99.90;;;;;;6044081;23;20014;-85
2022/10/06 09:08:23;;;;;;;11.65;2.30;;;14.80;99.90;;;;;;6043912;23;20014;-86
2022/10/06 09:11:19;;;;;;;15.55;2.40;;;14.90;99.90;;;;;;6043992;23;20021;-85
2022/10/06 09:13:53;;;;;;;12.63;2.50;;;14.90;99.90;;;;;;6067839;23;20028;-88
2022/10/06 09:16:27;;;;;;;9.00;2.40;;;15.00;99.90;;;;;;6067358;23;20011;-86
2022/10/06 09:19:06;;;;;;;11.13;2.13;;;15.00;99.90;;;;;;6043844;23;20010;-85
2022/10/06 09:21:52;;;;;;;12.82;2.40;;;15.10;99.90;;;;;;6043666;23;20018;-85
2022/10/06 09:24:44;;;;;;;10.98;2.28;;;15.10;99.90;;;;;;6043676;23;20014;-86
2022/10/06 09:27:29;;;;;;;12.27;2.70;;;15.10;99.90;;;;;;6067469;23;20022;-87
2022/10/06 09:29:55;;;;;;;16.15;3.13;;;15.20;99.90;;;;;;6067579;23;20109;-86
2022/10/06 09:32:23;;;;;;;12.93;2.30;;;15.20;99.90;;;;;;6020110;23;20026;-85
2022/10/06 09:34:54;;;;;;;8.93;2.25;;;15.10;99.90;;;;;;6067355;23;20026;-86
2022/10/06 09:37:20;;;;;;;13.07;2.30;;;15.30;99.90;;;;;;6043506;23;20095;-86
2022/10/06 09:39:49;;;;;;;12.32;2.40;;;15.40;99.90;;;;;;6043650;23;20014;-85
2022/10/06 09:42:43;;;;;;;12.27;2.42;;;15.50;99.90;;;;;;6043441;23;20085;-86
2022/10/06 09:45:15;;;;;;;12.77;2.30;;;15.50;99.90;;;;;;6038159;23;20066;-86
2022/10/06 09:47:44;;;;;;;11.55;2.10;;;15.50;99.90;;;;;;6067342;23;20317;-86
2022/10/06 09:50:24;;;;;;;11.38;2.38;;;15.50;99.90;;;;;;6043470;23;20413;-86
2022/10/06 09:52:59;;;;;;;8.43;2.00;;;15.50;99.90;;;;;;6043720;23;20449;-84
2022/10/06 09:55:50;;;;;;;11.90;3.05;;;15.50;99.90;;;;;;6066925;23;20022;-87
2022/10/06 09:58:33;;;;;;;10.75;2.55;;;15.50;99.90;;;;;;6066673;23;20460;-86
2022/10/06 10:01:06;;;;;;;10.48;2.50;;;15.60;99.90;;;;;;6043543;23;20244;-86
2022/10/06 10:03:45;;;;;;;10.93;2.40;;;15.70;99.90;;;;;;6068355;23;20010;-85
2022/10/06 10:06:40;;;;;;;12.93;2.30;;;15.60;99.90;;;;;;6045456;23;20074;-85
2022/10/06 10:09:18;;;;;;;14.02;2.50;;;15.50;99.90;;;;;;6063049;23;20464;-85
2022/10/06 10:14:37;;;;;;;11.13;2.00;;;15.50;99.90;;;;;;6069395;23;20353;-86
2022/10/06 10:17:22;;;;;;;9.65;2.15;;;15.60;99.90;;;;;;6044747;23;20022;-87
2022/10/06 10:19:54;;;;;;;9.68;2.00;;;15.60;99.90;;;;;;6045482;23;20066;-86
2022/10/06 10:22:34;;;;;;;12.77;2.78;;;15.60;99.90;;;;;;6045157;23;20010;-85
2022/10/06 10:25:12;;;;;;;11.50;2.30;;;15.60;99.90;;;;;;6069125;23;20014;-85
2022/10/06 10:27:44;;;;;;;10.98;1.80;;;15.50;99.90;;;;;;6044821;23;20029;-86
2022/10/06 10:30:13;;;;;;;11.82;2.25;;;15.50;99.90;;;;;;6045068;23;20086;-86
2022/10/06 10:32:51;;;;;;;10.95;2.55;;;15.50;99.90;;;;;;6045462;23;20018;-86
2022/10/06 10:35:44;;;;;;;10.63;2.10;;;15.40;99.90;;;;;;6068683;23;20026;-86
2022/10/06 10:38:10;;;;;;;;;;;15.30;99.90;;;;;;6045413;23;20028;-84
2022/10/06 10:40:46;;;;;;;10.10;2.20;;;15.40;99.90;;;;;;6068698;23;19995;-85
2022/10/06 10:43:32;;;;;;;10.52;2.03;;;15.50;99.90;;;;;;6045439;23;20006;-85
2022/10/06 10:46:05;;;;;;;7.45;1.80;;;15.70;99.90;;;;;;6068964;23;20085;-86
2022/10/06 10:48:42;;;;;;;12.40;2.05;;;15.80;99.90;;;;;;6068471;23;20072;-85
2022/10/06 10:51:11;;;;;;;12.18;1.80;;;16.00;99.90;;;;;;6045095;23;20026;-86
2022/10/06 10:53:51;;;;;;;10.13;1.95;;;16.10;99.90;;;;;;6068947;23;20014;-84
2022/10/06 10:56:21;;;;;;;9.05;1.90;;;16.10;99.90;;;;;;6068915;23;20050;-86
2022/10/06 10:58:52;;;;;;;12.88;2.00;;;16.20;99.90;;;;;;6068973;23;20050;-87
2022/10/06 11:01:40;;;;;;;7.95;1.88;;;16.20;99.90;;;;;;6044343;23;20453;-86
2022/10/06 11:04:12;;;;;;;11.68;2.17;;;16.30;99.90;;;;;;6045017;23;20081;-86
2022/10/06 11:06:53;;;;;;;9.00;2.55;;;16.30;99.90;;;;;;6045041;23;20010;-85
2022/10/06 11:09:30;;;;;;;9.13;2.05;;;16.40;99.90;;;;;;6044859;23;20014;-86
2022/10/06 11:12:13;;;;;;;8.68;1.67;;;16.50;99.90;;;;;;6044173;23;20015;-86
2022/10/06 11:14:47;;;;;;;9.52;1.80;;;16.50;99.90;;;;;;6045092;23;20490;-87
2022/10/06 11:17:39;;;;;;;10.18;2.25;;;16.60;99.90;;;;;;6044855;23;20075;-86
2022/10/06 11:20:44;;;;;;;11.27;2.15;;;16.60;99.90;;;;;;6044812;23;20313;-85
2022/10/06 11:23:53;;;;;;;10.30;1.92;;;16.70;99.90;;;;;;6044634;23;20093;-86
2022/10/06 11:26:44;;;;;;;6.88;1.90;;;16.70;99.90;;;;;;6066836;23;20018;-86
2022/10/06 11:29:43;;;;;;;8.75;1.75;;;16.70;99.90;;;;;;6066540;23;20066;-85
2022/10/06 11:33:00;;;;;;;15.05;2.03;;;16.70;99.90;;;;;;6067247;23;20033;-85
2022/10/06 11:35:33;;;;;;;12.35;1.98;;;16.70;99.90;;;;;;5925818;24;20044;-85
2022/10/06 11:38:22;;;;;;;11.10;2.08;;;16.70;99.90;;;;;;5900632;24;20012;-83
2022/10/06 11:41:26;;;;;;;10.57;2.13;;;16.70;99.90;;;;;;6008652;23;20015;-86
2022/10/06 11:44:13;;;;;;;10.70;2.00;;;16.70;99.90;;;;;;5966005;23;20021;-85
2022/10/06 11:46:58;;;;;;;7.68;1.42;;;16.80;99.90;;;;;;6044256;23;20014;-86
2022/10/06 11:49:27;;;;;;;9.07;2.00;;;16.90;99.90;;;;;;6043609;23;20021;-86
2022/10/06 11:52:13;;;;;;;7.72;1.77;;;16.90;99.90;;;;;;6042922;23;20026;-89
2022/10/06 11:54:38;;;;;;;8.70;2.13;;;16.90;99.90;;;;;;6063504;23;20014;-88
2022/10/06 11:57:34;;;;;;;7.38;1.70;;;17.00;99.90;;;;;;6043281;23;20022;-88
2022/10/06 12:00:14;;;;;;;6.47;1.58;;;16.90;99.90;;;;;;6012928;23;20014;-85
2022/10/06 12:02:42;;;;;;;9.82;1.98;;;16.70;99.90;;;;;;6067602;23;20014;-85
2022/10/06 12:05:14;;;;;;;7.90;1.52;;;16.50;99.90;;;;;;6043983;23;20046;-87
2022/10/06 12:07:54;;;;;;;9.00;1.80;;;16.50;99.90;;;;;;6043910;23;20014;-85
2022/10/06 12:10:31;;;;;;;11.32;1.92;;;16.50;99.90;;;;;;6042593;23;20022;-85
2022/10/06 12:13:15;;;;;;;11.48;2.17;;;16.60;99.90;;;;;;6068694;23;20019;-87
2022/10/06 12:16:11;;;;;;;9.98;1.80;;;16.60;99.90;;;;;;6044610;23;20091;-85
2022/10/06 12:19:23;;;;;;;9.70;1.85;;;16.50;99.90;;;;;;6067506;23;20452;-86
2022/10/06 12:21:59;;;;;;;9.00;1.77;;;16.40;99.90;;;;;;6032733;23;20022;-86
2022/10/06 12:24:37;;;;;;;8.50;1.67;;;16.40;99.90;;;;;;6068387;23;20065;-87
2022/10/06 12:27:30;;;;;;;8.07;1.65;;;16.50;99.90;;;;;;6043281;23;20508;-84
2022/10/06 12:30:02;;;;;;;8.50;1.58;;;16.70;99.90;;;;;;6044331;23;20085;-86
2022/10/06 12:32:39;;;;;;;5.65;1.50;;;16.80;99.90;;;;;;6067798;23;20014;-87
2022/10/06 12:35:17;;;;;;;7.65;1.75;;;16.90;99.90;;;;;;6043815;23;20042;-87
2022/10/06 12:37:49;;;;;;;8.70;1.73;;;17.00;99.90;;;;;;6044273;23;20022;-85
2022/10/06 12:40:37;;;;;;;10.13;1.83;;;17.00;99.90;;;;;;6044048;23;20023;-86
2022/10/06 12:43:17;;;;;;;7.93;1.60;;;17.00;99.90;;;;;;6043899;23;20014;-85
2022/10/06 12:45:55;;;;;;;7.60;1.77;;;17.10;99.90;;;;;;6043635;23;20010;-86
2022/10/06 12:48:35;;;;;;;8.57;1.60;;;17.10;99.90;;;;;;6043889;23;20019;-86
2022/10/06 12:51:03;;;;;;;7.40;1.55;;;17.10;99.90;;;;;;6043658;23;20088;-89
2022/10/06 12:53:36;;;;;;;11.07;1.90;;;17.10;99.90;;;;;;6043552;23;20014;-86
2022/10/06 12:56:07;;;;;;;9.95;1.95;;;17.10;99.90;;;;;;6068037;23;20516;-85
2022/10/06 12:58:33;;;;;;;8.43;1.60;;;17.10;99.90;;;;;;6043894;23;20113;-84
2022/10/06 13:01:08;;;;;;;8.88;1.40;;;17.10;99.90;;;;;;6043984;23;20041;-85
2022/10/06 13:03:35;;;;;;;6.82;1.65;;;17.10;99.90;;;;;;6043489;23;20317;-86
2022/10/06 13:06:07;;;;;;;7.10;1.98;;;17.10;99.90;;;;;;6067261;23;20150;-85
2022/10/06 13:08:38;;;;;;;8.00;1.60;;;17.10;99.90;;;;;;6067326;23;20021;-87
2022/10/06 13:11:20;;;;;;;10.23;1.70;;;17.10;99.90;;;;;;6043690;23;20021;-85
2022/10/06 13:13:48;;;;;;;9.67;1.70;;;17.00;99.90;;;;;;6067070;23;20069;-84
2022/10/06 13:16:19;;;;;;;8.38;1.73;;;17.00;99.90;;;;;;6067450;23;20516;-84